createdAt,value
2022-08-01T00:01:58.750Z,3.70
2022-08-01T00:04:26.937Z,3.60
2022-08-01T00:06:55.068Z,3.30
2022-08-01T00:09:24.120Z,3.20
2022-08-01T00:11:59.640Z,3.00
2022-08-01T00:14:31.960Z,2.80
2022-08-01T00:17:06.720Z,2.80
2022-08-01T00:19:35.589Z,2.80
2022-08-01T00:22:03.923Z,2.30
2022-08-01T00:24:32.237Z,2.90
2022-08-01T00:27:00.416Z,2.10
2022-08-01T00:29:49.882Z,2.40
2022-08-01T00:32:16.530Z,2.50
2022-08-01T00:34:44.638Z,2.90
2022-08-01T00:37:13.691Z,3.10
2022-08-01T00:39:44.382Z,3.00
2022-08-01T00:42:13.466Z,2.70
2022-08-01T00:44:41.731Z,3.20
2022-08-01T00:47:10.170Z,3.80
2022-08-01T00:49:38.399Z,3.20
2022-08-01T00:52:07.492Z,3.90
2022-08-01T00:54:36.623Z,4.40
2022-08-01T00:57:05.073Z,4.60
2022-08-01T00:59:39.932Z,4.00
2022-08-01T01:02:15.699Z,4.20
2022-08-01T01:04:44.469Z,4.70
2022-08-01T01:07:22.794Z,6.20
2022-08-01T01:10:02.556Z,7.00
2022-08-01T01:12:46.969Z,6.00
2022-08-01T01:15:32.063Z,7.80
2022-08-01T01:18:15.898Z,8.50
2022-08-01T01:20:47.709Z,8.20
2022-08-01T01:23:52.869Z,8.40
2022-08-01T01:26:48.715Z,9.10
2022-08-01T01:29:26.701Z,9.30
2022-08-01T01:32:04.339Z,10.80
2022-08-01T01:34:37.607Z,10.10
2022-08-01T01:37:13.827Z,11.10
2022-08-01T01:39:45.308Z,12.10
2022-08-01T01:42:25.474Z,12.20
2022-08-01T01:44:56.002Z,11.30
2022-08-01T01:47:26.022Z,11.50
2022-08-01T01:49:56.715Z,11.10
2022-08-01T01:52:26.206Z,11.10
2022-08-01T01:54:56.067Z,12.40
2022-08-01T01:57:25.689Z,11.40
2022-08-01T01:59:56.822Z,12.20
2022-08-01T02:02:25.742Z,11.70
2022-08-01T02:04:55.414Z,11.80
2022-08-01T02:07:26.453Z,11.10
2022-08-01T02:09:56.380Z,11.60
2022-08-01T02:12:25.594Z,11.80
2022-08-01T02:14:54.947Z,11.80
2022-08-01T02:17:25.601Z,11.90
2022-08-01T02:19:55.308Z,13.50
2022-08-01T02:22:33.876Z,12.20
2022-08-01T02:25:21.496Z,13.30
2022-08-01T02:28:02.444Z,11.90
2022-08-01T02:30:36.348Z,13.10
2022-08-01T02:33:15.624Z,13.40
2022-08-01T02:36:28.851Z,12.60
2022-08-01T02:38:40.384Z,13.50
2022-08-01T02:41:18.070Z,13.60
2022-08-01T02:43:53.085Z,14.20
2022-08-01T02:46:38.994Z,15.50
2022-08-01T02:49:10.341Z,15.50
2022-08-01T02:51:42.001Z,14.40
2022-08-01T02:54:12.572Z,14.60
2022-08-01T02:56:42.135Z,15.60
2022-08-01T02:59:16.241Z,15.60
2022-08-01T03:01:49.442Z,15.00
2022-08-01T03:04:20.689Z,16.40
2022-08-01T03:06:49.690Z,16.20
2022-08-01T03:09:19.441Z,15.80
2022-08-01T03:11:49.350Z,16.40
2022-08-01T03:14:18.903Z,15.60
2022-08-01T03:16:48.786Z,16.30
2022-08-01T03:19:19.262Z,14.80
2022-08-01T03:21:49.622Z,13.40
2022-08-01T03:24:19.649Z,10.80
2022-08-01T03:26:50.210Z,9.90
2022-08-01T03:29:22.916Z,10.20
2022-08-01T03:31:51.979Z,10.00
2022-08-01T03:34:23.024Z,9.10
2022-08-01T03:36:59.184Z,9.80
2022-08-01T03:39:35.033Z,9.50
2022-08-01T03:42:15.606Z,9.30
2022-08-01T03:44:54.585Z,9.90
2022-08-01T03:47:27.200Z,9.60
2022-08-01T03:49:57.521Z,9.60
2022-08-01T03:52:29.043Z,9.70
2022-08-01T03:55:00.381Z,10.60
2022-08-01T03:57:35.865Z,8.80
2022-08-01T04:00:10.096Z,8.30
2022-08-01T04:02:41.584Z,8.10
2022-08-01T04:05:10.728Z,7.90
2022-08-01T04:07:40.419Z,7.80
2022-08-01T04:10:09.226Z,7.20
2022-08-01T04:12:37.273Z,7.10
2022-08-01T04:15:06.534Z,6.90
2022-08-01T04:17:34.766Z,6.50
2022-08-01T04:20:02.832Z,7.00
2022-08-01T04:22:31.856Z,6.60
2022-08-01T04:25:11.890Z,6.70
2022-08-01T04:27:50.884Z,7.10
2022-08-01T04:30:25.741Z,5.80
2022-08-01T04:32:56.670Z,6.70
2022-08-01T04:36:02.740Z,7.00
2022-08-01T04:38:22.127Z,7.00
2022-08-01T04:40:53.960Z,7.20
2022-08-01T04:43:22.793Z,7.00
2022-08-01T04:45:52.643Z,7.00
2022-08-01T04:48:23.250Z,6.70
2022-08-01T04:50:52.584Z,6.90
2022-08-01T04:53:24.516Z,6.80
2022-08-01T04:55:52.832Z,6.90
2022-08-01T04:58:21.099Z,7.50
2022-08-01T05:00:49.165Z,6.90
2022-08-01T05:03:17.364Z,7.90
2022-08-01T05:05:45.430Z,7.40
2022-08-01T05:08:13.378Z,6.70
2022-08-01T05:10:41.440Z,6.60
2022-08-01T05:13:10.008Z,6.70
2022-08-01T05:15:38.365Z,6.40
2022-08-01T05:18:07.703Z,7.30
2022-08-01T05:20:38.227Z,6.60
2022-08-01T05:23:11.094Z,6.00
2022-08-01T05:25:56.642Z,5.70
2022-08-01T05:28:26.435Z,5.80
2022-08-01T05:30:56.220Z,5.80
2022-08-01T05:33:24.516Z,5.90
2022-08-01T05:35:52.650Z,5.60
2022-08-01T05:38:20.750Z,5.70
2022-08-01T05:40:48.873Z,6.10
2022-08-01T05:43:17.090Z,5.60
2022-08-01T05:45:45.699Z,5.20
2022-08-01T05:48:13.854Z,5.90
2022-08-01T05:50:41.955Z,5.30
2022-08-01T05:53:10.291Z,5.30
2022-08-01T05:55:38.568Z,4.70
2022-08-01T05:58:06.739Z,4.90
2022-08-01T06:00:34.894Z,5.00
2022-08-01T06:03:02.990Z,5.00
2022-08-01T06:05:31.041Z,5.00
2022-08-01T06:07:59.294Z,4.50
2022-08-01T06:10:27.701Z,5.00
2022-08-01T06:12:55.816Z,4.70
2022-08-01T06:15:23.998Z,4.10
2022-08-01T06:17:52.123Z,4.30
2022-08-01T06:20:20.297Z,3.90
2022-08-01T06:22:51.770Z,3.70
2022-08-01T06:25:21.487Z,4.00
2022-08-01T06:27:50.812Z,4.00
2022-08-01T06:30:19.698Z,3.50
2022-08-01T06:32:48.728Z,3.00
2022-08-01T06:35:17.251Z,3.20
2022-08-01T06:37:48.773Z,2.60
2022-08-01T06:40:17.630Z,2.80
2022-08-01T06:42:46.937Z,2.40
2022-08-01T06:45:15.999Z,2.40
2022-08-01T06:47:48.825Z,2.10
2022-08-01T06:50:19.395Z,2.40
2022-08-01T06:52:47.749Z,2.10
2022-08-01T06:55:16.217Z,2.10
2022-08-01T06:57:51.957Z,2.00
2022-08-01T07:00:23.607Z,1.90
2022-08-01T07:02:53.540Z,1.40
2022-08-01T07:05:22.545Z,1.20
2022-08-01T07:07:50.953Z,1.30
2022-08-01T07:10:19.903Z,1.00
2022-08-01T07:12:48.080Z,1.60
2022-08-01T07:15:17.123Z,1.40
2022-08-01T07:17:45.239Z,1.00
2022-08-01T07:20:16.446Z,1.20
2022-08-01T07:22:47.496Z,0.90
2022-08-01T07:25:16.755Z,1.10
2022-08-01T07:27:45.818Z,1.20
2022-08-01T07:30:14.349Z,1.20
2022-08-01T07:32:42.617Z,1.50
2022-08-01T07:35:10.898Z,1.30
2022-08-01T07:37:47.797Z,1.90
2022-08-01T07:40:19.641Z,1.40
2022-08-01T07:42:48.369Z,1.60
2022-08-01T07:45:16.815Z,1.60
2022-08-01T07:47:44.919Z,1.40
2022-08-01T07:50:13.883Z,1.40
2022-08-01T07:52:42.235Z,0.90
2022-08-01T07:55:11.974Z,1.20
2022-08-01T07:57:45.096Z,1.40
2022-08-01T08:00:14.487Z,1.10
2022-08-01T08:02:42.970Z,1.20
2022-08-01T08:05:13.190Z,1.00
2022-08-01T08:07:41.724Z,1.10
2022-08-01T08:10:10.461Z,1.10
2022-08-01T08:12:39.090Z,1.20
2022-08-01T08:15:07.516Z,1.40
2022-08-01T08:17:36.760Z,1.20
2022-08-01T08:20:09.204Z,1.50
2022-08-01T08:22:38.800Z,1.20
2022-08-01T08:25:07.933Z,1.00
2022-08-01T08:27:37.943Z,1.30
2022-08-01T08:30:12.220Z,1.20
2022-08-01T08:32:40.876Z,1.30
2022-08-01T08:35:09.562Z,1.30
2022-08-01T08:37:47.373Z,1.40
2022-08-01T08:40:16.957Z,1.10
2022-08-01T08:42:47.453Z,1.20
2022-08-01T08:45:15.630Z,1.20
2022-08-01T08:47:45.101Z,1.30
2022-08-01T08:50:13.569Z,1.20
2022-08-01T08:52:42.324Z,1.20
2022-08-01T08:55:12.832Z,1.20
2022-08-01T08:57:41.617Z,1.10
2022-08-01T09:00:11.798Z,1.10
2022-08-01T09:02:44.577Z,1.10
2022-08-01T09:05:17.482Z,1.10
2022-08-01T09:07:47.566Z,1.20
2022-08-01T09:10:15.758Z,1.10
2022-08-01T09:13:12.090Z,1.10
2022-08-01T09:15:45.363Z,1.20
2022-08-01T09:18:37.310Z,1.10
2022-08-01T09:21:10.139Z,1.20
2022-08-01T09:23:53.529Z,1.20
2022-08-01T09:26:31.980Z,1.00
2022-08-01T09:29:03.287Z,1.40
2022-08-01T09:31:47.258Z,1.20
2022-08-01T09:34:24.766Z,1.20
2022-08-01T09:36:58.022Z,1.20
2022-08-01T09:39:27.515Z,1.20
2022-08-01T09:41:57.533Z,1.10
2022-08-01T09:44:55.054Z,1.10
2022-08-01T09:47:38.822Z,1.30
2022-08-01T09:50:11.005Z,1.10
2022-08-01T09:52:41.163Z,1.00
2022-08-01T09:55:11.157Z,1.10
2022-08-01T09:57:40.221Z,1.10
2022-08-01T10:00:42.731Z,1.30
2022-08-01T10:03:25.081Z,1.40
2022-08-01T10:05:58.249Z,0.90
2022-08-01T10:08:29.962Z,2.30
2022-08-01T10:11:13.149Z,1.30
2022-08-01T10:13:44.933Z,1.80
2022-08-01T10:16:14.083Z,1.60
2022-08-01T10:18:46.734Z,1.40
2022-08-01T10:21:15.983Z,1.40
2022-08-01T10:24:06.712Z,1.90
2022-08-01T10:26:36.118Z,1.60
2022-08-01T10:29:45.596Z,1.30
2022-08-01T10:31:57.132Z,1.30
2022-08-01T10:34:30.923Z,1.30
2022-08-01T10:36:59.556Z,1.20
2022-08-01T10:39:31.406Z,1.20
2022-08-01T10:42:02.315Z,1.60
2022-08-01T10:44:33.994Z,1.40
2022-08-01T10:47:12.431Z,1.20
2022-08-01T10:49:55.307Z,1.10
2022-08-01T10:52:23.699Z,1.20
2022-08-01T10:55:12.599Z,1.00
2022-08-01T10:57:52.721Z,1.00
2022-08-01T11:00:22.651Z,0.90
2022-08-01T11:03:05.116Z,1.20
2022-08-01T11:05:36.066Z,1.30
2022-08-01T11:08:11.806Z,1.30
2022-08-01T11:10:46.455Z,1.30
2022-08-01T11:13:14.977Z,1.20
2022-08-01T11:15:50.225Z,1.50
2022-08-01T11:18:30.872Z,1.40
2022-08-01T11:21:56.244Z,1.20
2022-08-01T11:23:53.026Z,1.30
2022-08-01T11:26:29.342Z,1.10
2022-08-01T11:29:21.038Z,0.90
2022-08-01T11:31:50.477Z,0.90
2022-08-01T11:34:18.627Z,1.10
2022-08-01T11:37:03.472Z,0.90
2022-08-01T11:39:35.485Z,1.20
2022-08-01T11:42:21.060Z,1.20
2022-08-01T11:44:52.658Z,0.80
2022-08-01T11:47:50.579Z,0.80
2022-08-01T11:50:35.056Z,1.00
2022-08-01T11:53:05.813Z,1.20
2022-08-01T11:55:35.986Z,1.10
2022-08-01T11:58:08.942Z,0.80
2022-08-01T12:00:55.294Z,1.30
2022-08-01T12:03:34.165Z,1.00
2022-08-01T12:06:03.145Z,0.90
2022-08-01T12:08:36.054Z,1.10
2022-08-01T12:11:07.302Z,1.10
2022-08-01T12:13:43.186Z,1.00
2022-08-01T12:16:12.756Z,0.90
2022-08-01T12:18:44.567Z,1.30
2022-08-01T12:21:12.686Z,1.40
2022-08-01T12:23:40.752Z,1.00
2022-08-01T12:26:08.780Z,1.00
2022-08-01T12:28:56.909Z,1.00
2022-08-01T12:31:33.132Z,0.80
2022-08-01T12:34:31.273Z,0.80
2022-08-01T12:37:03.676Z,1.20
2022-08-01T12:39:34.608Z,1.00
2022-08-01T12:42:06.458Z,1.10
2022-08-01T12:44:35.893Z,0.80
2022-08-01T12:47:06.790Z,1.40
2022-08-01T12:49:41.383Z,1.00
2022-08-01T12:52:13.251Z,1.00
2022-08-01T12:55:09.969Z,1.40
2022-08-01T12:57:40.877Z,1.00
2022-08-01T13:00:14.279Z,1.00
2022-08-01T13:02:42.990Z,1.00
2022-08-01T13:05:12.603Z,1.20
2022-08-01T13:07:46.011Z,1.00
2022-08-01T13:10:16.421Z,1.30
2022-08-01T13:12:53.739Z,1.10
2022-08-01T13:15:23.328Z,1.20
2022-08-01T13:17:52.837Z,1.20
2022-08-01T13:20:36.698Z,1.10
2022-08-01T13:23:58.085Z,1.20
2022-08-01T13:26:09.992Z,1.00
2022-08-01T13:28:39.543Z,1.20
2022-08-01T13:31:09.100Z,1.20
2022-08-01T13:33:52.307Z,1.10
2022-08-01T13:36:32.246Z,1.00
2022-08-01T13:39:20.088Z,1.30
2022-08-01T13:41:48.723Z,1.30
2022-08-01T13:44:17.007Z,1.10
2022-08-01T13:46:49.880Z,1.20
2022-08-01T13:49:20.131Z,1.00
2022-08-01T13:51:51.063Z,1.40
2022-08-01T13:54:19.548Z,1.30
2022-08-01T13:56:47.804Z,1.50
2022-08-01T13:59:15.803Z,1.40
2022-08-01T14:01:43.873Z,1.10
2022-08-01T14:04:12.319Z,1.30
2022-08-01T14:06:42.012Z,1.10
2022-08-01T14:09:17.386Z,1.20
2022-08-01T14:11:46.117Z,1.20
2022-08-01T14:14:14.652Z,1.20
2022-08-01T14:16:46.029Z,1.10
2022-08-01T14:19:14.271Z,1.20
2022-08-01T14:21:42.355Z,1.30
2022-08-01T14:24:10.779Z,1.50
2022-08-01T14:26:39.081Z,1.30
2022-08-01T14:29:07.467Z,1.30
2022-08-01T14:31:35.643Z,1.10
2022-08-01T14:34:03.839Z,1.00
2022-08-01T14:36:32.541Z,1.30
2022-08-01T14:39:06.824Z,1.50
2022-08-01T14:41:34.937Z,1.20
2022-08-01T14:44:03.627Z,1.20
2022-08-01T14:46:32.049Z,1.20
2022-08-01T14:49:02.353Z,0.90
2022-08-01T14:51:34.176Z,1.00
2022-08-01T14:54:02.207Z,1.20
2022-08-01T14:56:32.209Z,1.40
2022-08-01T14:59:00.651Z,1.20
2022-08-01T15:01:28.728Z,1.20
2022-08-01T15:03:57.246Z,1.10
2022-08-01T15:06:25.415Z,1.30
2022-08-01T15:09:00.190Z,1.10
2022-08-01T15:11:34.198Z,1.20
2022-08-01T15:14:21.268Z,1.30
2022-08-01T15:16:49.478Z,1.20
2022-08-01T15:19:17.881Z,1.40
2022-08-01T15:21:46.086Z,1.10
2022-08-01T15:24:14.065Z,1.40
2022-08-01T15:26:42.367Z,1.20
2022-08-01T15:29:10.613Z,1.40
2022-08-01T15:31:39.227Z,1.10
2022-08-01T15:34:07.499Z,1.20
2022-08-01T15:36:35.696Z,1.20
2022-08-01T15:39:04.121Z,1.50
2022-08-01T15:41:32.500Z,1.30
2022-08-01T15:44:00.569Z,1.40
2022-08-01T15:46:28.495Z,1.20
2022-08-01T15:48:56.687Z,1.20
2022-08-01T15:51:24.785Z,1.30
2022-08-01T15:53:52.857Z,1.20
2022-08-01T15:56:21.076Z,1.20
2022-08-01T15:58:49.201Z,1.40
2022-08-01T16:01:17.889Z,1.20
2022-08-01T16:03:46.018Z,1.10
2022-08-01T16:06:14.294Z,1.40
2022-08-01T16:08:42.620Z,1.10
2022-08-01T16:11:11.003Z,1.30
2022-08-01T16:13:39.305Z,1.30
2022-08-01T16:16:12.378Z,1.20
2022-08-01T16:18:40.418Z,1.30
2022-08-01T16:21:08.818Z,1.20
2022-08-01T16:23:37.072Z,1.30
2022-08-01T16:26:05.098Z,1.20
2022-08-01T16:28:54.592Z,1.40
2022-08-01T16:31:30.388Z,1.50
2022-08-01T16:34:13.071Z,1.20
2022-08-01T16:36:42.787Z,1.30
2022-08-01T16:39:11.582Z,1.40
2022-08-01T16:41:39.850Z,1.40
2022-08-01T16:44:08.020Z,1.50
2022-08-01T16:46:36.226Z,1.60
2022-08-01T16:49:04.488Z,1.50
2022-08-01T16:51:34.402Z,1.30
2022-08-01T16:54:03.483Z,1.20
2022-08-01T16:56:31.826Z,1.40
2022-08-01T16:58:59.895Z,1.20
2022-08-01T17:02:00.443Z,1.00
2022-08-01T17:04:17.023Z,1.40
2022-08-01T17:06:46.288Z,1.10
2022-08-01T17:09:14.378Z,1.20
2022-08-01T17:11:42.603Z,1.10
2022-08-01T17:14:10.602Z,1.30
2022-08-01T17:16:38.904Z,1.20
2022-08-01T17:19:07.249Z,1.10
2022-08-01T17:21:40.950Z,1.30
2022-08-01T17:24:11.630Z,1.10
2022-08-01T17:26:44.644Z,1.10
2022-08-01T17:29:12.741Z,1.40
2022-08-01T17:31:40.839Z,1.20
2022-08-01T17:34:09.062Z,1.30
2022-08-01T17:36:37.070Z,1.10
2022-08-01T17:39:06.580Z,1.30
2022-08-01T17:41:35.533Z,1.50
2022-08-01T17:44:03.903Z,1.20
2022-08-01T17:46:32.086Z,1.20
2022-08-01T17:49:02.136Z,1.60
2022-08-01T17:51:31.192Z,1.20
2022-08-01T17:53:59.189Z,1.40
2022-08-01T17:56:27.726Z,1.30
2022-08-01T17:58:56.873Z,1.60
2022-08-01T18:01:27.001Z,1.50
2022-08-01T18:03:58.583Z,1.40
2022-08-01T18:06:28.725Z,1.30
2022-08-01T18:08:59.641Z,1.30
2022-08-01T18:11:37.375Z,1.30
2022-08-01T18:14:06.433Z,1.70
2022-08-01T18:16:34.723Z,1.40
2022-08-01T18:19:03.091Z,1.70
2022-08-01T18:21:32.264Z,1.30
2022-08-01T18:24:01.610Z,1.60
2022-08-01T18:26:29.652Z,1.20
2022-08-01T18:28:57.978Z,1.50
2022-08-01T18:31:26.171Z,1.30
2022-08-01T18:33:54.160Z,1.30
2022-08-01T18:36:33.052Z,1.30
2022-08-01T18:39:10.448Z,1.80
2022-08-01T18:41:40.583Z,1.60
2022-08-01T18:44:09.243Z,1.40
2022-08-01T18:46:39.196Z,1.40
2022-08-01T18:49:09.612Z,1.50
2022-08-01T18:51:43.730Z,1.50
2022-08-01T18:54:16.271Z,1.60
2022-08-01T18:56:45.583Z,1.60
2022-08-01T18:59:14.714Z,1.80
2022-08-01T19:01:43.473Z,1.90
2022-08-01T19:04:12.069Z,1.90
2022-08-01T19:06:40.741Z,2.20
2022-08-01T19:09:09.220Z,1.90
2022-08-01T19:11:38.550Z,2.00
2022-08-01T19:14:07.045Z,1.90
2022-08-01T19:16:35.230Z,2.20
2022-08-01T19:19:06.028Z,2.20
2022-08-01T19:21:38.501Z,2.40
2022-08-01T19:24:22.633Z,2.80
2022-08-01T19:26:57.915Z,3.00
2022-08-01T19:29:35.815Z,5.10
2022-08-01T19:32:07.036Z,3.20
2022-08-01T19:34:40.432Z,3.40
2022-08-01T19:37:09.376Z,2.70
2022-08-01T19:39:37.751Z,2.40
2022-08-01T19:42:06.025Z,2.40
2022-08-01T19:44:34.612Z,2.60
2022-08-01T19:47:02.858Z,2.40
2022-08-01T19:49:30.842Z,2.10
2022-08-01T19:52:03.117Z,2.00
2022-08-01T19:54:35.667Z,2.30
2022-08-01T19:57:07.520Z,1.80
2022-08-01T19:59:36.721Z,1.90
2022-08-01T20:02:06.222Z,2.50
2022-08-01T20:04:35.896Z,2.10
2022-08-01T20:07:04.666Z,2.20
2022-08-01T20:09:34.630Z,1.80
2022-08-01T20:12:03.543Z,1.70
2022-08-01T20:14:31.519Z,2.10
2022-08-01T20:16:59.735Z,1.90
2022-08-01T20:19:30.699Z,1.80
2022-08-01T20:22:02.695Z,1.80
2022-08-01T20:24:57.872Z,2.10
2022-08-01T20:27:30.039Z,1.90
2022-08-01T20:30:00.445Z,1.80
2022-08-01T20:32:33.795Z,1.80
2022-08-01T20:35:03.695Z,2.00
2022-08-01T20:38:04.100Z,2.10
2022-08-01T20:40:25.211Z,2.10
2022-08-01T20:42:56.496Z,2.10
2022-08-01T20:45:26.811Z,1.90
2022-08-01T20:47:55.942Z,2.00
2022-08-01T20:50:53.843Z,1.90
2022-08-01T20:53:24.481Z,2.10
2022-08-01T20:56:18.042Z,1.60
2022-08-01T20:58:58.681Z,1.80
2022-08-01T21:01:29.807Z,1.90
2022-08-01T21:04:00.506Z,1.90
2022-08-01T21:06:37.305Z,2.40
2022-08-01T21:09:06.556Z,2.10
2022-08-01T21:11:57.064Z,2.20
2022-08-01T21:14:42.432Z,2.40
2022-08-01T21:17:36.510Z,2.60
2022-08-01T21:20:08.068Z,2.20
2022-08-01T21:23:05.502Z,2.40
2022-08-01T21:25:35.244Z,2.00
2022-08-01T21:28:05.088Z,1.90
2022-08-01T21:30:36.419Z,1.80
2022-08-01T21:33:05.369Z,2.20
2022-08-01T21:35:34.406Z,2.00
2022-08-01T21:38:03.875Z,1.80
2022-08-01T21:40:35.954Z,2.20
2022-08-01T21:43:05.053Z,2.10
2022-08-01T21:45:33.200Z,2.20
2022-08-01T21:48:02.297Z,2.30
2022-08-01T21:50:39.584Z,2.10
2022-08-01T21:53:31.869Z,2.50
2022-08-01T21:56:14.942Z,2.40
2022-08-01T21:59:04.130Z,2.70
2022-08-01T22:01:51.260Z,2.50
2022-08-01T22:04:33.130Z,2.40
2022-08-01T22:07:03.242Z,2.50
2022-08-01T22:09:33.363Z,2.30
2022-08-01T22:12:06.409Z,2.40
2022-08-01T22:14:41.245Z,2.70
2022-08-01T22:17:14.086Z,2.30
2022-08-01T22:19:45.517Z,2.20
2022-08-01T22:22:45.049Z,2.00
2022-08-01T22:25:04.587Z,2.20
2022-08-01T22:28:07.761Z,2.10
2022-08-01T22:30:21.463Z,1.90
2022-08-01T22:33:15.553Z,2.10
2022-08-01T22:35:39.908Z,1.90
2022-08-01T22:38:09.805Z,2.00
2022-08-01T22:40:48.017Z,2.30
2022-08-01T22:43:25.464Z,2.10
2022-08-01T22:46:08.509Z,1.90
2022-08-01T22:48:44.585Z,1.70
2022-08-01T22:51:17.313Z,1.90
2022-08-01T22:54:04.370Z,1.80
2022-08-01T22:56:46.821Z,1.90
2022-08-01T22:59:42.549Z,1.90
2022-08-01T23:02:16.193Z,1.70
2022-08-01T23:04:48.992Z,1.90
2022-08-01T23:07:24.336Z,2.00
2022-08-01T23:09:55.258Z,1.70
2022-08-01T23:12:26.268Z,1.80
2022-08-01T23:14:56.876Z,1.80
2022-08-01T23:17:28.812Z,1.70
2022-08-01T23:20:00.291Z,1.70
2022-08-01T23:22:31.270Z,1.70
2022-08-01T23:25:04.377Z,1.90
2022-08-01T23:27:51.660Z,1.60
2022-08-01T23:30:30.092Z,2.10
2022-08-01T23:32:58.956Z,2.00
2022-08-01T23:35:27.433Z,2.00
2022-08-01T23:38:01.803Z,1.90
2022-08-01T23:40:32.729Z,1.90
2022-08-01T23:43:02.940Z,1.90
2022-08-01T23:46:02.269Z,1.90
2022-08-01T23:48:20.208Z,2.00
2022-08-01T23:50:48.454Z,1.90
2022-08-01T23:53:16.541Z,1.90
2022-08-01T23:55:44.795Z,1.70
2022-08-01T23:58:12.962Z,1.40
